Time;durP1;ratioP1;P1;durP2;ratioP2;P2;SDS_P1;SDS_P2;PMS_P1;PMS_P2;Temp;Humidity;BMP_temperature;BMP_pressure;BME280_temperature;BME280_humidity;BME280_pressure;Samples;Min_cycle;Max_cycle;Signal;HPM_P1;HPM_P2
2022/01/20 00:03:59;;;;;;;2.47;2.28;;;;;;;;;;4992220;28;20192;-56
2022/01/20 00:27:54;;;;;;;2.45;2.25;;;;;;;;;;4989096;28;20206;-57
2022/01/20 00:30:46;;;;;;;2.20;2.10;;;;;;;;;;5000151;28;20187;-57
2022/01/20 00:38:15;;;;;;;2.22;2.10;;;;;;;;;;4999174;28;20237;-58
2022/01/20 00:40:40;;;;;;;2.55;2.40;;;;;;;;;;5002402;28;20202;-58
2022/01/20 00:43:06;;;;;;;2.10;2.00;;;;;;;;;;5000615;28;20187;-58
2022/01/20 00:45:31;;;;;;;3.03;1.70;;;;;;;;;;4996384;28;20179;-58
2022/01/20 00:47:57;;;;;;;5.40;2.15;;;;;;;;;;5010676;28;20186;-57
2022/01/20 00:50:24;;;;;;;2.38;2.20;;;;;;;;;;5005257;28;20191;-58
2022/01/20 00:52:49;;;;;;;3.20;2.47;;;;;;;;;;5005410;28;20218;-58
2022/01/20 00:55:14;;;;;;;4.93;2.60;;;;;;;;;;4996404;28;20219;-56
2022/01/20 00:57:40;;;;;;;2.78;2.58;;;;;;;;;;4997392;28;20179;-56
2022/01/20 01:00:06;;;;;;;2.47;2.28;;;;;;;;;;4999981;28;20202;-56
2022/01/20 01:02:33;;;;;;;2.75;2.55;;;;;;;;;;5000970;28;20186;-56
2022/01/20 01:04:58;;;;;;;2.75;1.95;;;;;;;;;;5007938;28;20966;-56
2022/01/20 01:07:45;;;;;;;2.55;2.33;;;;;;;;;;5002481;28;20675;-56
2022/01/20 01:10:12;;;;;;;2.28;2.17;;;;;;;;;;4998617;28;20175;-56
2022/01/20 01:15:15;;;;;;;2.25;2.05;;;;;;;;;;5007198;28;20198;-56
2022/01/20 01:20:26;;;;;;;2.97;2.50;;;;;;;;;;4999571;28;20198;-57
2022/01/20 01:22:52;;;;;;;2.47;2.28;;;;;;;;;;5001228;28;20179;-56
2022/01/20 01:25:17;;;;;;;2.20;2.10;;;;;;;;;;5003403;28;20177;-57
2022/01/20 01:27:44;;;;;;;4.32;2.10;;;;;;;;;;4999381;28;20570;-57
2022/01/20 01:32:55;;;;;;;3.47;2.22;;;;;;;;;;4997760;28;20182;-57
2022/01/20 01:35:22;;;;;;;2.38;2.28;;;;;;;;;;4995489;28;20179;-57
2022/01/20 01:40:33;;;;;;;2.55;2.10;;;;;;;;;;4979250;28;20195;-56
2022/01/20 01:43:01;;;;;;;2.45;2.25;;;;;;;;;;4999932;28;20218;-56
2022/01/20 01:45:26;;;;;;;3.65;1.88;;;;;;;;;;5006500;28;20190;-56
2022/01/20 01:47:51;;;;;;;3.55;2.45;;;;;;;;;;5000959;28;20571;-56
2022/01/20 01:50:17;;;;;;;2.22;2.05;;;;;;;;;;5001619;28;20195;-56
2022/01/20 01:52:42;;;;;;;2.20;2.00;;;;;;;;;;5001438;28;20180;-57
2022/01/20 01:55:08;;;;;;;2.25;2.15;;;;;;;;;;4996416;28;20187;-56
2022/01/20 01:57:33;;;;;;;6.18;2.10;;;;;;;;;;5000314;28;20680;-56
2022/01/20 02:00:00;;;;;;;2.72;1.90;;;;;;;;;;4999503;28;20216;-56
2022/01/20 02:02:27;;;;;;;1.75;1.65;;;;;;;;;;4998732;28;20217;-56
2022/01/20 02:04:52;;;;;;;1.88;1.77;;;;;;;;;;5000482;28;20187;-57
2022/01/20 02:20:50;;;;;;;2.13;1.70;;;;;;;;;;4992614;28;20215;-57
2022/01/20 02:23:16;;;;;;;3.30;2.20;;;;;;;;;;4998005;28;20175;-57
2022/01/20 02:25:41;;;;;;;2.47;2.20;;;;;;;;;;5000399;28;20197;-57
2022/01/20 02:28:09;;;;;;;2.13;2.03;;;;;;;;;;5007051;28;20183;-57
2022/01/20 02:30:35;;;;;;;2.42;2.22;;;;;;;;;;5002867;28;20233;-57
2022/01/20 02:33:03;;;;;;;3.28;2.13;;;;;;;;;;5001558;28;20203;-56
2022/01/20 02:35:31;;;;;;;2.03;1.92;;;;;;;;;;5005224;28;20554;-57
2022/01/20 02:38:04;;;;;;;3.10;2.03;;;;;;;;;;5004078;28;20242;-57
2022/01/20 02:46:08;;;;;;;2.00;1.90;;;;;;;;;;4998742;28;20719;-56
2022/01/20 02:48:34;;;;;;;1.95;1.85;;;;;;;;;;5001873;28;20266;-57
2022/01/20 02:50:59;;;;;;;1.70;1.60;;;;;;;;;;4998819;28;20282;-57
2022/01/20 02:53:25;;;;;;;2.05;1.85;;;;;;;;;;4994258;28;20196;-57
2022/01/20 02:55:51;;;;;;;2.53;1.88;;;;;;;;;;4996416;28;20184;-57
2022/01/20 02:58:16;;;;;;;1.88;1.77;;;;;;;;;;4999567;28;20267;-57
2022/01/20 03:00:41;;;;;;;1.83;1.73;;;;;;;;;;5003258;28;20285;-57
2022/01/20 03:03:07;;;;;;;3.13;1.65;;;;;;;;;;4990787;28;20172;-57
2022/01/20 03:05:33;;;;;;;3.28;1.90;;;;;;;;;;4978120;28;20176;-56
2022/01/20 03:08:00;;;;;;;2.25;2.05;;;;;;;;;;4999468;28;20206;-57
2022/01/20 03:10:25;;;;;;;1.80;1.70;;;;;;;;;;5001697;28;20194;-57
2022/01/20 03:12:51;;;;;;;1.90;1.80;;;;;;;;;;5000789;28;20183;-57
2022/01/20 03:15:16;;;;;;;2.13;2.00;;;;;;;;;;4998754;28;20187;-57
2022/01/20 03:17:41;;;;;;;1.77;1.67;;;;;;;;;;4991658;28;20229;-57
2022/01/20 03:20:07;;;;;;;2.10;1.90;;;;;;;;;;5002559;28;20226;-57
2022/01/20 03:22:32;;;;;;;1.92;1.77;;;;;;;;;;5003132;28;20182;-57
2022/01/20 03:24:58;;;;;;;1.70;1.60;;;;;;;;;;4998831;28;20179;-57
2022/01/20 03:27:23;;;;;;;2.67;1.90;;;;;;;;;;4998030;28;20191;-56
2022/01/20 03:29:49;;;;;;;1.90;1.70;;;;;;;;;;4999823;28;20648;-57
2022/01/20 03:32:14;;;;;;;2.70;2.50;;;;;;;;;;4992039;28;20179;-57
2022/01/20 03:34:39;;;;;;;2.47;2.28;;;;;;;;;;5002760;28;20176;-57
2022/01/20 03:37:05;;;;;;;2.25;2.00;;;;;;;;;;4995886;28;20188;-57
2022/01/20 03:39:33;;;;;;;3.03;2.80;;;;;;;;;;4989509;28;20180;-57
2022/01/20 03:41:59;;;;;;;3.63;2.97;;;;;;;;;;4989553;28;20201;-57
2022/01/20 03:44:24;;;;;;;2.63;2.42;;;;;;;;;;4996987;28;20724;-57
2022/01/20 03:46:50;;;;;;;3.90;3.17;;;;;;;;;;4976722;28;20180;-57
2022/01/20 03:49:36;;;;;;;9.15;4.68;;;;;;;;;;4978339;28;20190;-57
2022/01/20 03:52:02;;;;;;;36.42;13.60;;;;;;;;;;5004409;28;20269;-57
2022/01/20 03:54:27;;;;;;;15.35;6.75;;;;;;;;;;5006893;28;20210;-57
2022/01/20 03:56:52;;;;;;;6.88;3.50;;;;;;;;;;5001266;28;20210;-57
2022/01/20 03:59:18;;;;;;;5.65;2.95;;;;;;;;;;4988100;28;20237;-57
2022/01/20 04:01:43;;;;;;;3.83;3.22;;;;;;;;;;4991716;28;20253;-57
2022/01/20 04:04:08;;;;;;;3.95;2.60;;;;;;;;;;4998189;28;20207;-57
2022/01/20 04:06:34;;;;;;;1.85;1.75;;;;;;;;;;4986569;28;20206;-56
2022/01/20 04:08:59;;;;;;;1.88;1.70;;;;;;;;;;4977067;28;20776;-57
2022/01/20 04:11:25;;;;;;;1.90;1.73;;;;;;;;;;4978773;28;20897;-56
2022/01/20 04:13:51;;;;;;;2.28;1.92;;;;;;;;;;4995165;28;20218;-57
2022/01/20 04:16:34;;;;;;;1.80;1.70;;;;;;;;;;4995760;28;20215;-57
2022/01/20 04:19:00;;;;;;;1.70;1.60;;;;;;;;;;4990563;28;20171;-57
2022/01/20 04:21:27;;;;;;;1.95;1.85;;;;;;;;;;4997430;28;20274;-57
2022/01/20 04:23:52;;;;;;;1.73;1.63;;;;;;;;;;4999386;28;20171;-56
2022/01/20 04:26:18;;;;;;;3.53;2.45;;;;;;;;;;4992871;28;20715;-57
2022/01/20 04:28:44;;;;;;;3.33;1.98;;;;;;;;;;4977010;28;20260;-57
2022/01/20 04:31:09;;;;;;;1.77;1.67;;;;;;;;;;4977707;28;20219;-57
2022/01/20 04:33:34;;;;;;;2.28;2.08;;;;;;;;;;4984582;28;20195;-57
2022/01/20 04:36:00;;;;;;;2.17;1.98;;;;;;;;;;4997728;28;20187;-57
2022/01/20 04:38:25;;;;;;;3.25;3.00;;;;;;;;;;4993059;28;20254;-56
2022/01/20 04:40:51;;;;;;;2.72;2.53;;;;;;;;;;4998546;28;20200;-57
2022/01/20 04:43:16;;;;;;;3.83;2.00;;;;;;;;;;5000589;28;20192;-56
2022/01/20 04:45:49;;;;;;;2.00;1.80;;;;;;;;;;5001271;28;20179;-57
2022/01/20 04:48:21;;;;;;;4.32;2.50;;;;;;;;;;4989435;28;20187;-57
2022/01/20 04:58:59;;;;;;;2.30;2.10;;;;;;;;;;5002624;28;20210;-57
2022/01/20 05:01:24;;;;;;;2.15;1.95;;;;;;;;;;5002829;28;20592;-57
2022/01/20 05:03:49;;;;;;;2.05;1.80;;;;;;;;;;5005974;28;20191;-57
2022/01/20 05:06:14;;;;;;;2.28;2.08;;;;;;;;;;5004112;28;20271;-57
2022/01/20 05:08:40;;;;;;;3.03;2.13;;;;;;;;;;4994741;28;20179;-56
2022/01/20 05:11:05;;;;;;;2.65;2.33;;;;;;;;;;4995258;28;20191;-57
2022/01/20 05:13:37;;;;;;;4.78;2.40;;;;;;;;;;4997261;28;20183;-57
2022/01/20 05:16:03;;;;;;;2.72;2.53;;;;;;;;;;4996984;28;20192;-57
2022/01/20 05:18:28;;;;;;;2.75;2.53;;;;;;;;;;5002663;28;20650;-57
2022/01/20 05:20:53;;;;;;;2.47;2.33;;;;;;;;;;5002602;28;20271;-58
2022/01/20 05:23:18;;;;;;;3.40;2.80;;;;;;;;;;5002498;28;20716;-57
2022/01/20 05:25:44;;;;;;;2.33;2.17;;;;;;;;;;4996524;28;20182;-57
2022/01/20 05:28:09;;;;;;;3.83;3.00;;;;;;;;;;5001790;28;20222;-57
2022/01/20 05:30:34;;;;;;;3.25;2.90;;;;;;;;;;4988838;28;20700;-57
2022/01/20 05:33:00;;;;;;;4.85;3.63;;;;;;;;;;4979824;28;20259;-57
2022/01/20 05:35:26;;;;;;;4.13;3.50;;;;;;;;;;4981695;28;20195;-57
2022/01/20 05:37:51;;;;;;;3.38;3.05;;;;;;;;;;4996847;28;20720;-57
2022/01/20 05:40:17;;;;;;;3.17;2.88;;;;;;;;;;4991559;28;20298;-57
2022/01/20 05:42:42;;;;;;;4.30;2.92;;;;;;;;;;4990602;28;20641;-57
2022/01/20 05:45:08;;;;;;;6.68;4.55;;;;;;;;;;4994788;28;20187;-57
2022/01/20 05:47:37;;;;;;;5.30;3.17;;;;;;;;;;4998569;28;20180;-57
2022/01/20 05:50:02;;;;;;;4.03;3.17;;;;;;;;;;5001775;28;20195;-57
2022/01/20 05:52:28;;;;;;;6.43;3.15;;;;;;;;;;4983992;28;20250;-57
2022/01/20 05:54:53;;;;;;;5.18;4.00;;;;;;;;;;4980102;28;20223;-57
2022/01/20 05:57:18;;;;;;;4.57;3.72;;;;;;;;;;4987407;28;20251;-57
2022/01/20 05:59:44;;;;;;;6.78;4.57;;;;;;;;;;5004127;28;20215;-57
2022/01/20 06:02:14;;;;;;;4.22;3.22;;;;;;;;;;4999825;28;20643;-57
2022/01/20 06:04:40;;;;;;;3.33;2.72;;;;;;;;;;5007365;28;20191;-57
2022/01/20 06:07:05;;;;;;;3.50;2.20;;;;;;;;;;5007757;28;20175;-57
2022/01/20 06:09:30;;;;;;;2.70;2.50;;;;;;;;;;4996080;28;20199;-57
2022/01/20 06:11:55;;;;;;;2.75;2.50;;;;;;;;;;4995812;28;20187;-57
2022/01/20 06:14:23;;;;;;;3.90;2.67;;;;;;;;;;4997914;28;20649;-57
2022/01/20 06:16:48;;;;;;;3.00;2.70;;;;;;;;;;4999722;28;20172;-57
2022/01/20 06:19:14;;;;;;;3.08;2.20;;;;;;;;;;5006381;28;20186;-57
2022/01/20 06:21:41;;;;;;;2.50;2.30;;;;;;;;;;4996584;28;20257;-57
2022/01/20 06:24:06;;;;;;;2.95;2.63;;;;;;;;;;4993509;28;20187;-57
2022/01/20 06:26:31;;;;;;;4.20;2.15;;;;;;;;;;4990311;28;20190;-57
2022/01/20 06:28:57;;;;;;;5.30;3.90;;;;;;;;;;4997872;28;20262;-58
2022/01/20 06:31:22;;;;;;;5.72;3.50;;;;;;;;;;5002457;28;20670;-58
2022/01/20 06:33:47;;;;;;;3.78;3.47;;;;;;;;;;4988188;28;20188;-58
2022/01/20 06:36:13;;;;;;;11.82;4.45;;;;;;;;;;4977990;28;20180;-58
2022/01/20 06:38:38;;;;;;;4.30;3.35;;;;;;;;;;4980894;28;20186;-57
2022/01/20 06:41:03;;;;;;;7.05;4.50;;;;;;;;;;4990309;28;20641;-58
2022/01/20 06:43:28;;;;;;;5.82;4.20;;;;;;;;;;4996774;28;20193;-58
2022/01/20 06:45:54;;;;;;;12.27;9.20;;;;;;;;;;4996851;28;20278;-56
2022/01/20 06:48:19;;;;;;;21.15;13.25;;;;;;;;;;4992421;28;20205;-56
2022/01/20 06:50:44;;;;;;;38.33;19.20;;;;;;;;;;4990620;28;20334;-57
2022/01/20 06:53:10;;;;;;;31.65;17.45;;;;;;;;;;5000025;28;20265;-57
2022/01/20 06:55:35;;;;;;;40.40;20.58;;;;;;;;;;4999695;28;20194;-57
2022/01/20 06:58:00;;;;;;;40.47;21.20;;;;;;;;;;4998180;28;20244;-57
2022/01/20 07:00:26;;;;;;;22.55;13.68;;;;;;;;;;5002328;28;20195;-57
2022/01/20 07:02:52;;;;;;;23.17;14.18;;;;;;;;;;4997461;28;20619;-56
2022/01/20 07:05:19;;;;;;;25.92;16.10;;;;;;;;;;5012676;28;20190;-57
2022/01/20 07:07:44;;;;;;;32.08;20.63;;;;;;;;;;5000090;28;20549;-57
2022/01/20 07:10:10;;;;;;;37.15;21.25;;;;;;;;;;4999214;28;20241;-57
2022/01/20 07:12:36;;;;;;;39.38;22.85;;;;;;;;;;4990872;28;20246;-56
2022/01/20 07:15:01;;;;;;;58.65;32.03;;;;;;;;;;4997932;28;20249;-57
2022/01/20 07:17:26;;;;;;;53.58;30.30;;;;;;;;;;4977014;28;20191;-57
2022/01/20 07:19:52;;;;;;;51.33;29.95;;;;;;;;;;4998186;28;20187;-57
2022/01/20 07:22:17;;;;;;;53.20;29.70;;;;;;;;;;5003092;28;20650;-57
2022/01/20 07:24:42;;;;;;;61.40;29.80;;;;;;;;;;5005051;28;20189;-57
2022/01/20 07:27:08;;;;;;;53.50;29.13;;;;;;;;;;4999932;28;20175;-57
2022/01/20 07:29:34;;;;;;;75.07;34.72;;;;;;;;;;4999972;28;20187;-57
2022/01/20 07:32:01;;;;;;;66.43;34.10;;;;;;;;;;5001963;28;20573;-56
2022/01/20 07:34:27;;;;;;;65.65;32.50;;;;;;;;;;4990845;28;20179;-57
2022/01/20 07:36:52;;;;;;;70.07;32.10;;;;;;;;;;4997475;28;20183;-57
2022/01/20 07:39:17;;;;;;;66.03;31.60;;;;;;;;;;4997014;28;20175;-57
2022/01/20 07:41:43;;;;;;;67.05;32.60;;;;;;;;;;4998872;28;20202;-56
2022/01/20 07:44:09;;;;;;;51.17;27.77;;;;;;;;;;5006544;28;20180;-56
2022/01/20 07:46:34;;;;;;;46.10;22.60;;;;;;;;;;4993806;28;20247;-57
2022/01/20 07:48:59;;;;;;;44.95;24.00;;;;;;;;;;4988045;28;20579;-57
2022/01/20 07:51:24;;;;;;;43.58;26.25;;;;;;;;;;5001199;28;20187;-57
2022/01/20 07:53:50;;;;;;;60.17;28.50;;;;;;;;;;5003666;28;20584;-57
2022/01/20 07:56:15;;;;;;;51.95;29.05;;;;;;;;;;5001471;28;20182;-57
2022/01/20 07:58:40;;;;;;;55.85;29.17;;;;;;;;;;4979403;28;20625;-57
2022/01/20 08:01:06;;;;;;;51.20;28.55;;;;;;;;;;4977369;28;20253;-57
2022/01/20 08:03:32;;;;;;;65.50;30.33;;;;;;;;;;4996051;28;20209;-57
2022/01/20 08:05:57;;;;;;;55.13;29.33;;;;;;;;;;4999127;28;20964;-57
2022/01/20 08:08:22;;;;;;;59.92;27.35;;;;;;;;;;4992567;28;20182;-57
2022/01/20 08:10:47;;;;;;;50.78;25.73;;;;;;;;;;5000777;28;20655;-57
2022/01/20 08:13:13;;;;;;;42.67;24.20;;;;;;;;;;5006303;28;20183;-57
2022/01/20 08:15:38;;;;;;;47.28;24.67;;;;;;;;;;5002327;28;20190;-57
2022/01/20 08:18:04;;;;;;;49.53;23.58;;;;;;;;;;4993080;28;21173;-57
2022/01/20 08:20:29;;;;;;;44.22;24.60;;;;;;;;;;4976745;28;20199;-58
2022/01/20 08:22:55;;;;;;;43.88;25.83;;;;;;;;;;4997439;28;20182;-58
2022/01/20 08:25:20;;;;;;;61.10;30.13;;;;;;;;;;5003316;28;20175;-58
2022/01/20 08:27:46;;;;;;;61.58;31.67;;;;;;;;;;5007050;28;20174;-58
2022/01/20 08:30:13;;;;;;;63.80;32.05;;;;;;;;;;5001626;28;20192;-58
2022/01/20 08:32:39;;;;;;;58.20;32.28;;;;;;;;;;4992444;28;20175;-58
2022/01/20 08:35:06;;;;;;;58.05;32.65;;;;;;;;;;4991748;28;20191;-57
2022/01/20 08:37:32;;;;;;;72.78;32.92;;;;;;;;;;4989402;28;20189;-56
2022/01/20 08:39:57;;;;;;;68.03;30.83;;;;;;;;;;4984357;28;20214;-57
2022/01/20 08:42:23;;;;;;;69.22;30.67;;;;;;;;;;4976596;28;20191;-57
2022/01/20 08:44:48;;;;;;;72.13;28.77;;;;;;;;;;4978482;28;20960;-57
2022/01/20 08:47:17;;;;;;;56.03;30.27;;;;;;;;;;4998563;28;20692;-57
2022/01/20 08:49:43;;;;;;;73.05;34.20;;;;;;;;;;4994573;28;20176;-57
2022/01/20 08:52:08;;;;;;;60.70;25.38;;;;;;;;;;4991805;28;20255;-56
2022/01/20 08:54:34;;;;;;;47.80;26.05;;;;;;;;;;4990326;28;20290;-56
2022/01/20 08:56:59;;;;;;;50.00;25.58;;;;;;;;;;4995899;28;20237;-57
2022/01/20 08:59:25;;;;;;;55.83;26.48;;;;;;;;;;5002622;28;20187;-57
2022/01/20 09:01:50;;;;;;;38.65;22.77;;;;;;;;;;5002861;28;20222;-57
2022/01/20 09:04:15;;;;;;;36.78;21.88;;;;;;;;;;5000510;28;20171;-57
2022/01/20 09:06:41;;;;;;;37.58;22.30;;;;;;;;;;5003760;28;20568;-57
2022/01/20 09:09:07;;;;;;;42.60;23.30;;;;;;;;;;4991795;28;20215;-57
2022/01/20 09:11:37;;;;;;;35.15;22.00;;;;;;;;;;5005440;28;20183;-57
2022/01/20 09:16:46;;;;;;;38.17;20.27;;;;;;;;;;4997932;28;20218;-58
2022/01/20 09:19:12;;;;;;;36.88;21.85;;;;;;;;;;4991311;28;20176;-58
2022/01/20 09:21:39;;;;;;;34.05;20.77;;;;;;;;;;4998490;28;20231;-58
2022/01/20 09:24:04;;;;;;;40.97;22.10;;;;;;;;;;4998696;28;20171;-58
2022/01/20 09:26:29;;;;;;;35.40;21.17;;;;;;;;;;5000464;28;20175;-58
2022/01/20 09:28:55;;;;;;;41.22;21.85;;;;;;;;;;5006197;28;21173;-57
2022/01/20 09:31:25;;;;;;;39.58;20.65;;;;;;;;;;5003204;28;20185;-57
2022/01/20 09:33:50;;;;;;;36.90;20.33;;;;;;;;;;5008180;28;20604;-57
2022/01/20 09:36:16;;;;;;;28.20;18.20;;;;;;;;;;4998180;28;20279;-57
2022/01/20 09:38:41;;;;;;;29.42;17.35;;;;;;;;;;5008053;28;20186;-58
2022/01/20 09:41:06;;;;;;;27.58;17.85;;;;;;;;;;5005784;28;20242;-57
2022/01/20 09:43:32;;;;;;;36.35;20.85;;;;;;;;;;4998550;28;20198;-57
2022/01/20 09:45:57;;;;;;;32.35;19.42;;;;;;;;;;4998099;28;20179;-57
2022/01/20 09:48:24;;;;;;;37.47;19.52;;;;;;;;;;5001346;28;20179;-57
2022/01/20 09:50:49;;;;;;;31.75;19.17;;;;;;;;;;5004981;28;20277;-57
2022/01/20 09:53:15;;;;;;;35.55;18.52;;;;;;;;;;5007410;28;20302;-57
2022/01/20 09:55:40;;;;;;;24.65;17.02;;;;;;;;;;5002762;28;20241;-57
2022/01/20 09:58:06;;;;;;;34.72;18.67;;;;;;;;;;5001648;28;20186;-59
2022/01/20 10:00:32;;;;;;;32.70;16.05;;;;;;;;;;5005983;28;20203;-57
2022/01/20 10:02:59;;;;;;;28.08;18.33;;;;;;;;;;5005418;28;20249;-57
2022/01/20 10:05:25;;;;;;;33.45;18.42;;;;;;;;;;4999211;28;20316;-57
2022/01/20 10:07:50;;;;;;;32.72;18.67;;;;;;;;;;4999810;28;20722;-57
2022/01/20 10:10:15;;;;;;;36.22;18.33;;;;;;;;;;5004127;28;21130;-57
2022/01/20 10:12:40;;;;;;;32.83;19.60;;;;;;;;;;5004599;28;20184;-57
2022/01/20 10:15:10;;;;;;;29.90;18.10;;;;;;;;;;5000517;28;20258;-59
2022/01/20 10:17:35;;;;;;;29.30;19.05;;;;;;;;;;5004432;28;20183;-57
2022/01/20 10:20:04;;;;;;;34.45;18.15;;;;;;;;;;5002882;28;21323;-57
2022/01/20 10:22:31;;;;;;;31.75;18.63;;;;;;;;;;5008632;28;20175;-57
2022/01/20 10:24:57;;;;;;;38.03;21.52;;;;;;;;;;5004440;28;20685;-57
2022/01/20 10:27:23;;;;;;;49.75;26.15;;;;;;;;;;4996562;28;20179;-57
2022/01/20 10:29:58;;;;;;;54.00;27.33;;;;;;;;;;4999902;28;20233;-57
2022/01/20 10:32:24;;;;;;;34.55;22.30;;;;;;;;;;5007172;28;20190;-57
2022/01/20 10:34:59;;;;;;;35.50;23.13;;;;;;;;;;5000898;28;20182;-57
2022/01/20 10:37:26;;;;;;;37.83;24.35;;;;;;;;;;4999179;28;20207;-57
2022/01/20 10:39:51;;;;;;;37.60;23.65;;;;;;;;;;4989147;28;20243;-58
2022/01/20 10:42:21;;;;;;;44.10;24.83;;;;;;;;;;4994761;28;20188;-57
2022/01/20 10:44:54;;;;;;;34.35;21.27;;;;;;;;;;5006656;28;20696;-57
2022/01/20 10:47:21;;;;;;;24.80;15.98;;;;;;;;;;4999966;28;20179;-57
2022/01/20 10:49:47;;;;;;;31.63;17.27;;;;;;;;;;4998628;28;20183;-57
2022/01/20 10:52:14;;;;;;;29.65;17.02;;;;;;;;;;5000940;28;20181;-57
2022/01/20 10:54:44;;;;;;;25.33;15.95;;;;;;;;;;4994823;28;20203;-57
2022/01/20 10:57:11;;;;;;;26.35;16.48;;;;;;;;;;4995451;28;20172;-57
2022/01/20 10:59:47;;;;;;;25.42;16.20;;;;;;;;;;4996882;28;20190;-57
2022/01/20 11:02:12;;;;;;;25.10;16.52;;;;;;;;;;4993580;28;20655;-57
2022/01/20 11:04:39;;;;;;;21.20;15.32;;;;;;;;;;4995901;28;20262;-57
2022/01/20 11:07:07;;;;;;;24.20;14.75;;;;;;;;;;4996400;28;20200;-57
2022/01/20 11:09:36;;;;;;;18.27;13.73;;;;;;;;;;4997384;28;20190;-57
2022/01/20 11:12:02;;;;;;;24.65;14.27;;;;;;;;;;4999104;28;20199;-57
2022/01/20 11:14:28;;;;;;;22.83;14.70;;;;;;;;;;4998442;28;20201;-57
2022/01/20 11:16:54;;;;;;;21.70;13.95;;;;;;;;;;5003612;28;20182;-57
2022/01/20 11:19:20;;;;;;;20.02;13.77;;;;;;;;;;5005146;28;20187;-57
2022/01/20 11:21:46;;;;;;;24.75;12.77;;;;;;;;;;5000647;28;20646;-58
2022/01/20 11:24:18;;;;;;;20.55;13.70;;;;;;;;;;5007301;28;20657;-58
2022/01/20 11:26:54;;;;;;;19.92;13.55;;;;;;;;;;4995287;28;20206;-57
2022/01/20 11:29:20;;;;;;;25.45;13.55;;;;;;;;;;4980031;28;20655;-57
2022/01/20 11:31:46;;;;;;;21.33;13.75;;;;;;;;;;4997562;28;20191;-58
2022/01/20 11:34:13;;;;;;;21.05;13.15;;;;;;;;;;4999829;28;20572;-57
2022/01/20 11:36:38;;;;;;;19.55;13.23;;;;;;;;;;4997492;28;20191;-57
2022/01/20 11:39:05;;;;;;;18.23;12.50;;;;;;;;;;4997513;28;20181;-58
2022/01/20 11:41:43;;;;;;;21.35;13.63;;;;;;;;;;5007557;28;20703;-57
2022/01/20 11:44:19;;;;;;;23.60;15.85;;;;;;;;;;4997731;28;20175;-56
2022/01/20 11:46:46;;;;;;;21.92;14.20;;;;;;;;;;5002339;28;20179;-57
2022/01/20 11:49:12;;;;;;;34.05;18.95;;;;;;;;;;4990471;28;20782;-57
2022/01/20 11:51:44;;;;;;;22.38;15.18;;;;;;;;;;4996669;28;20207;-57
2022/01/20 11:54:10;;;;;;;18.60;12.25;;;;;;;;;;4998529;28;20199;-57
2022/01/20 11:56:38;;;;;;;18.10;11.82;;;;;;;;;;4998287;28;20201;-56
2022/01/20 11:59:04;;;;;;;20.58;12.75;;;;;;;;;;4995428;28;20219;-57
2022/01/20 12:01:30;;;;;;;20.50;11.43;;;;;;;;;;5005972;28;20305;-57
2022/01/20 12:03:57;;;;;;;18.27;10.68;;;;;;;;;;5005207;28;20187;-57
2022/01/20 12:06:24;;;;;;;20.42;12.00;;;;;;;;;;4997550;28;20214;-57
2022/01/20 12:08:57;;;;;;;18.02;11.98;;;;;;;;;;4990578;28;20194;-56
2022/01/20 12:11:36;;;;;;;22.02;11.90;;;;;;;;;;4979852;28;20184;-56
2022/01/20 12:14:02;;;;;;;19.83;12.20;;;;;;;;;;4996850;28;20193;-57
2022/01/20 12:16:27;;;;;;;18.98;11.95;;;;;;;;;;5001467;28;20182;-57
2022/01/20 12:18:53;;;;;;;19.15;10.43;;;;;;;;;;5003753;28;20183;-57
2022/01/20 12:21:19;;;;;;;17.05;11.05;;;;;;;;;;4987966;28;20257;-58
2022/01/20 12:23:45;;;;;;;18.92;10.85;;;;;;;;;;4993603;28;20187;-60
2022/01/20 12:26:11;;;;;;;16.98;10.38;;;;;;;;;;4994398;28;20215;-57
2022/01/20 12:28:36;;;;;;;16.80;10.90;;;;;;;;;;4992625;28;20679;-58
2022/01/20 12:31:03;;;;;;;15.65;10.60;;;;;;;;;;4995697;28;20845;-58
2022/01/20 12:33:31;;;;;;;17.55;10.20;;;;;;;;;;4997188;28;20190;-58
2022/01/20 12:36:02;;;;;;;16.00;10.60;;;;;;;;;;5001975;28;20959;-58
2022/01/20 12:38:27;;;;;;;18.15;12.05;;;;;;;;;;5003852;28;20311;-58
2022/01/20 12:41:04;;;;;;;20.75;11.52;;;;;;;;;;5009272;28;20293;-58
2022/01/20 12:43:49;;;;;;;17.63;11.27;;;;;;;;;;4997373;28;20649;-58
2022/01/20 12:46:19;;;;;;;19.88;10.98;;;;;;;;;;4999190;28;20171;-56
2022/01/20 12:48:55;;;;;;;16.95;11.75;;;;;;;;;;5003337;28;20251;-57
2022/01/20 12:51:28;;;;;;;18.98;10.80;;;;;;;;;;5005761;28;20245;-57
2022/01/20 12:53:56;;;;;;;16.05;10.38;;;;;;;;;;5000575;28;21008;-57
2022/01/20 12:56:30;;;;;;;21.38;11.38;;;;;;;;;;5000898;28;20204;-58
2022/01/20 12:58:55;;;;;;;16.52;11.15;;;;;;;;;;5006659;28;20191;-58
2022/01/20 13:01:20;;;;;;;16.30;9.82;;;;;;;;;;5008276;28;20206;-56
2022/01/20 13:03:46;;;;;;;14.90;9.70;;;;;;;;;;5004188;28;20175;-56
2022/01/20 13:06:22;;;;;;;14.88;9.45;;;;;;;;;;4998014;28;20626;-56
2022/01/20 13:08:56;;;;;;;13.82;10.38;;;;;;;;;;5021807;28;20229;-57
2022/01/20 13:11:27;;;;;;;15.23;10.55;;;;;;;;;;5005766;28;20187;-58
2022/01/20 13:13:52;;;;;;;18.00;11.07;;;;;;;;;;5002239;28;20274;-57
2022/01/20 13:16:18;;;;;;;17.27;10.30;;;;;;;;;;4999737;28;20593;-57
2022/01/20 13:18:53;;;;;;;31.52;17.58;;;;;;;;;;5001658;28;20541;-57
2022/01/20 13:21:19;;;;;;;14.55;10.35;;;;;;;;;;4995146;28;20795;-57
2022/01/20 13:23:57;;;;;;;15.30;10.15;;;;;;;;;;4998243;28;20262;-57
2022/01/20 13:26:23;;;;;;;16.17;10.05;;;;;;;;;;4999085;28;20182;-56
2022/01/20 13:29:04;;;;;;;17.77;9.95;;;;;;;;;;4997888;28;20188;-57
2022/01/20 13:31:30;;;;;;;14.45;10.02;;;;;;;;;;5000144;28;20256;-57
2022/01/20 13:33:58;;;;;;;14.30;9.80;;;;;;;;;;4996587;28;20664;-57
2022/01/20 13:36:23;;;;;;;16.30;9.50;;;;;;;;;;4998235;28;20199;-57
2022/01/20 13:38:55;;;;;;;20.25;10.30;;;;;;;;;;5000597;28;20190;-57
2022/01/20 13:41:22;;;;;;;17.35;9.85;;;;;;;;;;5006396;28;20583;-57
2022/01/20 13:46:40;;;;;;;13.93;9.48;;;;;;;;;;5000127;28;20175;-57
2022/01/20 13:49:17;;;;;;;14.85;8.82;;;;;;;;;;4992625;28;20184;-57
2022/01/20 13:51:43;;;;;;;15.77;8.88;;;;;;;;;;5007996;28;20295;-57
2022/01/20 13:54:08;;;;;;;12.82;8.90;;;;;;;;;;4995821;28;20200;-57
2022/01/20 13:56:34;;;;;;;15.73;9.10;;;;;;;;;;4999412;28;20632;-57
2022/01/20 13:59:06;;;;;;;14.38;9.07;;;;;;;;;;4999542;28;20229;-57
2022/01/20 14:01:32;;;;;;;20.13;8.60;;;;;;;;;;5001598;28;20204;-58
2022/01/20 14:03:57;;;;;;;13.52;8.18;;;;;;;;;;5001331;28;20206;-58
2022/01/20 14:06:22;;;;;;;16.88;8.57;;;;;;;;;;4998496;28;20226;-57
2022/01/20 14:08:48;;;;;;;14.55;8.45;;;;;;;;;;4997160;28;20192;-56
2022/01/20 14:11:14;;;;;;;13.18;8.15;;;;;;;;;;4995290;28;20750;-57
2022/01/20 14:13:39;;;;;;;11.20;7.80;;;;;;;;;;5001925;28;20201;-57
2022/01/20 14:16:04;;;;;;;14.93;8.82;;;;;;;;;;5002470;28;20282;-57
2022/01/20 14:18:34;;;;;;;18.17;10.77;;;;;;;;;;4998017;28;20183;-58
2022/01/20 14:21:00;;;;;;;16.17;9.98;;;;;;;;;;4999941;28;20632;-57
2022/01/20 14:23:25;;;;;;;18.27;10.38;;;;;;;;;;4996747;28;20265;-57
2022/01/20 14:25:52;;;;;;;17.77;10.88;;;;;;;;;;4989619;28;20664;-57
2022/01/20 14:28:17;;;;;;;15.57;9.80;;;;;;;;;;5000731;28;20283;-58
2022/01/20 14:30:43;;;;;;;18.55;10.60;;;;;;;;;;5005553;28;20270;-58
2022/01/20 14:33:08;;;;;;;24.17;12.57;;;;;;;;;;5000777;28;20963;-57
2022/01/20 14:35:33;;;;;;;16.52;9.88;;;;;;;;;;4999211;28;20249;-57
2022/01/20 14:38:00;;;;;;;15.73;10.27;;;;;;;;;;5002036;28;20688;-57
2022/01/20 14:40:25;;;;;;;13.60;9.07;;;;;;;;;;4998052;28;20747;-57
2022/01/20 14:42:51;;;;;;;15.13;9.60;;;;;;;;;;4985935;28;20238;-57
2022/01/20 14:45:20;;;;;;;16.13;8.98;;;;;;;;;;4994701;28;20646;-57
2022/01/20 14:47:47;;;;;;;14.85;9.32;;;;;;;;;;5004751;28;20573;-57
2022/01/20 14:50:12;;;;;;;17.13;10.98;;;;;;;;;;4996649;28;20202;-57
2022/01/20 14:52:38;;;;;;;37.53;22.90;;;;;;;;;;4995954;28;20199;-57
2022/01/20 14:55:04;;;;;;;22.25;12.10;;;;;;;;;;4993977;28;20211;-56
2022/01/20 14:57:29;;;;;;;15.60;11.00;;;;;;;;;;5002125;28;20735;-57
2022/01/20 14:59:55;;;;;;;18.88;12.30;;;;;;;;;;4997443;28;20187;-57
2022/01/20 15:02:20;;;;;;;17.60;11.05;;;;;;;;;;4998309;28;20195;-58
2022/01/20 15:04:48;;;;;;;17.73;12.27;;;;;;;;;;5001584;28;20237;-57
2022/01/20 15:07:13;;;;;;;18.23;10.27;;;;;;;;;;4999649;28;20202;-58
2022/01/20 15:09:38;;;;;;;21.63;12.93;;;;;;;;;;5004383;28;20624;-58
2022/01/20 15:12:04;;;;;;;18.90;11.50;;;;;;;;;;4998441;28;20187;-57
2022/01/20 15:14:29;;;;;;;28.02;15.73;;;;;;;;;;5006936;28;20194;-57
2022/01/20 15:16:55;;;;;;;24.05;13.77;;;;;;;;;;5005376;28;20183;-57
2022/01/20 15:19:20;;;;;;;24.77;13.95;;;;;;;;;;4999064;28;20183;-57
2022/01/20 15:21:45;;;;;;;16.65;10.13;;;;;;;;;;4996656;28;20786;-57
2022/01/20 15:24:11;;;;;;;20.52;13.57;;;;;;;;;;4998630;28;20990;-57
2022/01/20 15:26:37;;;;;;;21.83;13.75;;;;;;;;;;5001208;28;20242;-56
2022/01/20 15:29:03;;;;;;;20.67;12.20;;;;;;;;;;4996805;28;20672;-57
2022/01/20 15:31:30;;;;;;;18.80;11.60;;;;;;;;;;5001573;28;20187;-57
2022/01/20 15:33:55;;;;;;;16.80;9.52;;;;;;;;;;5003008;28;20184;-57
2022/01/20 15:36:21;;;;;;;13.60;8.27;;;;;;;;;;4992442;28;20570;-57
2022/01/20 15:38:46;;;;;;;14.80;9.88;;;;;;;;;;4998422;28;20187;-58